createdAt,value
2023-04-08T00:01:01.252Z,2.80
2023-04-08T00:03:29.675Z,2.58
2023-04-08T00:06:00.990Z,2.75
2023-04-08T00:08:27.918Z,2.65
2023-04-08T00:10:54.859Z,2.60
2023-04-08T00:13:22.150Z,2.70
2023-04-08T00:15:49.646Z,3.75
2023-04-08T00:18:17.195Z,4.15
2023-04-08T00:20:44.423Z,5.70
2023-04-08T00:23:11.292Z,3.95
2023-04-08T00:25:38.154Z,2.92
2023-04-08T00:28:05.188Z,3.42
2023-04-08T00:30:32.168Z,5.18
2023-04-08T00:32:59.069Z,4.07
2023-04-08T00:35:26.136Z,2.80
2023-04-08T00:37:52.998Z,4.43
2023-04-08T00:40:19.919Z,6.45
2023-04-08T00:42:50.130Z,4.05
2023-04-08T00:45:16.916Z,5.05
2023-04-08T00:47:45.049Z,5.95
2023-04-08T00:50:13.858Z,5.22
2023-04-08T00:52:43.182Z,3.33
2023-04-08T00:55:10.587Z,6.05
2023-04-08T00:57:37.773Z,4.18
2023-04-08T01:00:06.533Z,5.93
2023-04-08T01:02:49.298Z,6.07
2023-04-08T01:05:23.948Z,5.72
2023-04-08T01:07:52.567Z,8.57
2023-04-08T01:10:29.237Z,5.95
2023-04-08T01:13:06.646Z,6.75
2023-04-08T01:15:36.786Z,7.82
2023-04-08T01:18:08.377Z,6.05
2023-04-08T01:20:36.147Z,5.10
2023-04-08T01:23:32.989Z,7.13
2023-04-08T01:25:59.930Z,6.43
2023-04-08T01:28:29.634Z,7.43
2023-04-08T01:30:59.575Z,6.20
2023-04-08T01:33:29.100Z,5.32
2023-04-08T01:35:57.492Z,4.47
2023-04-08T01:38:26.787Z,5.38
2023-04-08T01:40:55.956Z,5.90
2023-04-08T01:43:24.666Z,5.72
2023-04-08T01:45:54.757Z,6.07
2023-04-08T01:48:22.140Z,5.40
2023-04-08T01:50:51.307Z,8.18
2023-04-08T01:53:18.558Z,8.02
2023-04-08T01:55:46.152Z,7.10
2023-04-08T01:58:19.311Z,9.27
2023-04-08T02:00:47.303Z,8.98
2023-04-08T02:03:19.252Z,9.45
2023-04-08T02:05:46.701Z,7.28
2023-04-08T02:08:13.617Z,10.73
2023-04-08T02:10:40.816Z,7.22
2023-04-08T02:13:09.109Z,8.02
2023-04-08T02:15:41.484Z,8.82
2023-04-08T02:18:14.102Z,7.05
2023-04-08T02:20:53.920Z,12.90
2023-04-08T02:25:49.693Z,13.27
2023-04-08T02:28:19.292Z,7.60
2023-04-08T02:30:50.963Z,7.25
2023-04-08T02:33:22.836Z,9.15
2023-04-08T02:35:55.978Z,10.88
2023-04-08T02:38:24.473Z,10.75
2023-04-08T02:40:51.693Z,9.15
2023-04-08T02:43:18.532Z,11.32
2023-04-08T02:45:46.128Z,10.95
2023-04-08T02:48:15.342Z,12.80
2023-04-08T02:50:42.043Z,10.75
2023-04-08T02:53:09.722Z,12.82
2023-04-08T02:55:38.060Z,11.73
2023-04-08T02:58:12.837Z,11.82
2023-04-08T03:00:39.846Z,12.07
2023-04-08T03:03:09.882Z,12.75
2023-04-08T03:05:39.790Z,14.25
2023-04-08T03:08:06.953Z,12.07
2023-04-08T03:10:33.767Z,11.77
2023-04-08T03:13:00.694Z,11.40
2023-04-08T03:15:27.522Z,10.75
2023-04-08T03:17:55.580Z,14.20
2023-04-08T03:20:25.538Z,12.52
2023-04-08T03:22:52.589Z,12.95
2023-04-08T03:25:19.363Z,13.15
2023-04-08T03:27:46.504Z,11.98
2023-04-08T03:30:13.582Z,14.73
2023-04-08T03:32:40.737Z,14.88
2023-04-08T03:35:07.876Z,13.10
2023-04-08T03:37:34.686Z,12.00
2023-04-08T03:40:01.649Z,12.68
2023-04-08T03:42:31.485Z,11.77
2023-04-08T03:44:58.709Z,13.68
2023-04-08T03:47:25.610Z,13.02
2023-04-08T03:49:55.540Z,16.00
2023-04-08T03:52:22.557Z,12.00
2023-04-08T03:54:52.379Z,13.98
2023-04-08T03:57:19.331Z,14.35
2023-04-08T03:59:46.093Z,13.55
2023-04-08T04:02:13.091Z,14.23
2023-04-08T04:04:43.830Z,13.75
2023-04-08T04:07:10.848Z,13.05
2023-04-08T04:09:37.648Z,16.33
2023-04-08T04:12:04.494Z,15.32
2023-04-08T04:14:31.449Z,14.38
2023-04-08T04:16:58.492Z,16.23
2023-04-08T04:19:25.618Z,14.98
2023-04-08T04:21:52.443Z,15.15
2023-04-08T04:24:19.186Z,16.63
2023-04-08T22:50:57.841Z,3.80
2023-04-08T22:53:27.682Z,3.75
2023-04-08T22:58:41.006Z,2.53
2023-04-08T23:01:18.692Z,4.72
2023-04-08T23:03:57.545Z,4.43
2023-04-08T23:06:45.575Z,2.97
2023-04-08T23:09:26.789Z,2.90
2023-04-08T23:12:05.138Z,2.60
2023-04-08T23:14:41.566Z,3.30
2023-04-08T23:17:09.136Z,2.92
2023-04-08T23:19:37.845Z,2.97
2023-04-08T23:22:06.679Z,3.67
2023-04-08T23:24:34.962Z,3.75
2023-04-08T23:27:06.200Z,3.10
2023-04-08T23:29:36.154Z,3.30
2023-04-08T23:32:14.881Z,3.53
2023-04-08T23:34:54.029Z,4.18
2023-04-08T23:37:36.825Z,2.75
2023-04-08T23:40:13.017Z,3.63
2023-04-08T23:42:41.117Z,5.00
2023-04-08T23:45:13.561Z,2.97
2023-04-08T23:47:49.385Z,4.80
2023-04-08T23:50:46.310Z,5.20
2023-04-08T23:53:16.069Z,4.78
2023-04-08T23:55:45.309Z,3.70
2023-04-08T23:58:16.833Z,5.05
